»·PEaware :: N229TB KWHP-KCNO

N229TB :: KWHP-KCNO

FLIGHT INFORMATION

Flight Status: Arrived
Operator: Privately registered:
United States
More flights under this callsign
Pilot: Anonymous 10623 (10623)
Aircraft: CESSNA 208 CARAVAN
(C208)
More flights by this aircraft type
Origin: KWHP Whiteman
United States
Destination: KCNO Chino
United States
More flights between these airports :: More routes between these airports
Route: +V186 PDZ
File this flight plan on PilotEdge
Remarks: BURP8
Altitude:
(Current/Filed)
5,000ft
Speed:
(Current/Filed)
150kts
Departed: 29-Dec-19 10:18 AM
Arrived: 29-Dec-19 10:56 AM
Distance/Time
Traveled:
42nm/0:38
Distance/Time
To Go:
Arrived

Flight Plot

Page will automatically refresh every two minutes.


Map Options




Map Legend


Flown Route
Filed Route
Departure Airport
Arrival Airport
Navaid (VOR, NDB)
Fix

Horizontal Profiles

Position Reports

Time Latitude Longitude Heading Altitude Ground
Speed
29-Dec-19 09:55 34.260354 -118.413356 0 998ft 0kts
29-Dec-19 09:56 34.260354 -118.413356 319 998ft 0kts
29-Dec-19 09:57 34.260354 -118.413356 319 998ft 0kts
29-Dec-19 09:58 34.260354 -118.413356 319 998ft 0kts
29-Dec-19 09:59 34.260354 -118.413356 319 998ft 0kts
29-Dec-19 10:00 34.260354 -118.413356 319 998ft 0kts
29-Dec-19 10:01 34.260354 -118.413356 319 998ft 0kts
29-Dec-19 10:02 34.260354 -118.413356 319 998ft 0kts
29-Dec-19 10:03 34.260354 -118.413356 319 998ft 0kts
29-Dec-19 10:04 34.260354 -118.413356 319 998ft 0kts
29-Dec-19 10:05 34.260354 -118.413356 319 998ft 0kts
29-Dec-19 10:06 34.260354 -118.413356 319 998ft 0kts
29-Dec-19 10:07 34.260354 -118.413356 319 998ft 0kts
29-Dec-19 10:08 34.260364 -118.413528 239 998ft 0kts
29-Dec-19 10:09 34.260361 -118.413533 236 998ft 0kts
29-Dec-19 10:10 34.259931 -118.413471 138 996ft 5kts
29-Dec-19 10:11 34.257147 -118.410522 139 980ft 15kts
29-Dec-19 10:12 34.255732 -118.409038 142 973ft 0kts
29-Dec-19 10:13 34.255732 -118.409038 142 973ft 0kts
29-Dec-19 10:14 34.255732 -118.409038 142 973ft 0kts
29-Dec-19 10:15 34.255732 -118.409038 142 973ft 0kts
29-Dec-19 10:16 34.255365 -118.409287 317 971ft 7kts
29-Dec-19 10:17 34.266272 -118.436078 270 2375ft 130kts
29-Dec-19 10:18 34.270280 -118.480964 277 4088ft 142kts
29-Dec-19 10:19 34.286780 -118.519554 344 4823ft 153kts
29-Dec-19 10:20 34.310591 -118.546499 246 4998ft 139kts
29-Dec-19 10:21 34.276293 -118.540785 140 4841ft 160kts
29-Dec-19 10:22 34.239161 -118.506039 143 4842ft 174kts
29-Dec-19 10:23 34.213572 -118.456774 110 4843ft 178kts
29-Dec-19 10:24 34.196158 -118.400734 109 4842ft 178kts
29-Dec-19 10:25 34.179128 -118.344793 109 4842ft 178kts
29-Dec-19 10:26 34.162073 -118.288739 109 4843ft 177kts
29-Dec-19 10:27 34.145015 -118.232746 109 4843ft 177kts
29-Dec-19 10:28 34.127971 -118.177059 110 4843ft 177kts
29-Dec-19 10:29 34.110700 -118.120769 109 4843ft 177kts
29-Dec-19 10:30 34.093468 -118.064544 109 4843ft 177kts
29-Dec-19 10:31 34.076292 -118.008571 109 4860ft 177kts
29-Dec-19 10:32 34.059097 -117.952717 109 4861ft 178kts
29-Dec-19 10:33 34.041763 -117.896491 109 4862ft 178kts
29-Dec-19 10:34 34.024459 -117.840465 110 4861ft 177kts
29-Dec-19 10:35 34.007230 -117.784864 109 4862ft 177kts
29-Dec-19 10:36 33.988962 -117.729924 112 4862ft 178kts
29-Dec-19 10:37 33.969617 -117.674953 112 4862ft 178kts
29-Dec-19 10:38 33.950170 -117.619789 112 4863ft 177kts
29-Dec-19 10:39 33.930822 -117.565017 112 4863ft 177kts
29-Dec-19 10:40 33.928159 -117.507198 81 4863ft 177kts
29-Dec-19 10:41 33.933498 -117.447990 80 4863ft 177kts
29-Dec-19 10:42 33.938717 -117.390976 80 4176ft 155kts
29-Dec-19 10:43 33.943361 -117.340500 81 4162ft 155kts
29-Dec-19 10:44 33.974753 -117.314292 11 4162ft 149kts
29-Dec-19 10:45 33.999024 -117.331802 253 4173ft 139kts
29-Dec-19 10:46 33.986608 -117.376660 251 4161ft 140kts
29-Dec-19 10:47 33.978613 -117.421901 262 4024ft 146kts
29-Dec-19 10:48 33.977593 -117.465459 270 2965ft 96kts
29-Dec-19 10:49 33.977303 -117.497631 266 2844ft 110kts
29-Dec-19 10:50 33.976548 -117.528569 262 2249ft 63kts
29-Dec-19 10:51 33.976658 -117.552456 264 1943ft 79kts
29-Dec-19 10:52 33.976179 -117.580500 265 1502ft 85kts
29-Dec-19 10:53 33.976033 -117.605917 261 1046ft 64kts
29-Dec-19 10:54 33.975828 -117.627435 264 725ft 60kts
29-Dec-19 10:55 33.976198 -117.636969 22 631ft 2kts
29-Dec-19 10:56 33.976521 -117.636723 18 632ft 0kts
29-Dec-19 10:57 33.976893 -117.637327 267 633ft 4kts
29-Dec-19 10:58 33.977948 -117.637798 47 635ft 4kts
29-Dec-19 10:59 33.977987 -117.637626 85 635ft 0kts
29-Dec-19 11:00 33.977987 -117.637626 85 635ft 0kts
29-Dec-19 11:01 33.977987 -117.637626 85 635ft 0kts

Navigation Log

Ident Type
Flight plan parsing failed, navigation log unavailable